sensor_id;sensor_type;location;lat;lon;timestamp;P1;durP1;ratioP1;P2;durP2;ratioP2
69172;SDS011;56280;49.662;8.408;2023-04-08T00:00:02;25.50;;;23.50;;
69172;SDS011;56280;49.662;8.408;2023-04-08T00:02:28;23.67;;;21.77;;
69172;SDS011;56280;49.662;8.408;2023-04-08T00:04:53;23.43;;;21.57;;
69172;SDS011;56280;49.662;8.408;2023-04-08T00:07:18;23.97;;;21.87;;
69172;SDS011;56280;49.662;8.408;2023-04-08T00:09:44;24.93;;;22.83;;
69172;SDS011;56280;49.662;8.408;2023-04-08T00:12:09;26.07;;;23.77;;
69172;SDS011;56280;49.662;8.408;2023-04-08T00:14:34;24.90;;;22.70;;
69172;SDS011;56280;49.662;8.408;2023-04-08T00:17:02;24.45;;;22.25;;
69172;SDS011;56280;49.662;8.408;2023-04-08T00:19:27;25.13;;;22.93;;
69172;SDS011;56280;49.662;8.408;2023-04-08T00:21:53;27.03;;;24.57;;
69172;SDS011;56280;49.662;8.408;2023-04-08T00:24:18;26.57;;;24.17;;
69172;SDS011;56280;49.662;8.408;2023-04-08T00:26:43;28.03;;;25.60;;
69172;SDS011;56280;49.662;8.408;2023-04-08T00:29:08;26.30;;;24.00;;
69172;SDS011;56280;49.662;8.408;2023-04-08T00:31:34;27.55;;;24.95;;
69172;SDS011;56280;49.662;8.408;2023-04-08T00:34:00;26.90;;;24.50;;
69172;SDS011;56280;49.662;8.408;2023-04-08T00:36:26;28.00;;;25.50;;
69172;SDS011;56280;49.662;8.408;2023-04-08T00:38:51;26.33;;;24.02;;
69172;SDS011;56280;49.662;8.408;2023-04-08T00:41:16;25.90;;;23.63;;
69172;SDS011;56280;49.662;8.408;2023-04-08T00:43:44;26.23;;;23.83;;
69172;SDS011;56280;49.662;8.408;2023-04-08T00:46:09;28.80;;;26.20;;
69172;SDS011;56280;49.662;8.408;2023-04-08T00:48:35;28.77;;;26.17;;
69172;SDS011;56280;49.662;8.408;2023-04-08T00:51:00;27.37;;;24.87;;
69172;SDS011;56280;49.662;8.408;2023-04-08T00:53:26;26.13;;;23.70;;
69172;SDS011;56280;49.662;8.408;2023-04-08T00:55:51;27.67;;;25.17;;
69172;SDS011;56280;49.662;8.408;2023-04-08T00:58:17;26.30;;;23.87;;
69172;SDS011;56280;49.662;8.408;2023-04-08T01:00:43;27.92;;;25.33;;
69172;SDS011;56280;49.662;8.408;2023-04-08T01:03:23;26.98;;;24.48;;
69172;SDS011;56280;49.662;8.408;2023-04-08T01:08:40;27.52;;;25.13;;
69172;SDS011;56280;49.662;8.408;2023-04-08T01:11:09;28.00;;;25.40;;
69172;SDS011;56280;49.662;8.408;2023-04-08T01:13:36;26.55;;;23.95;;
69172;SDS011;56280;49.662;8.408;2023-04-08T01:16:05;27.60;;;25.10;;
69172;SDS011;56280;49.662;8.408;2023-04-08T01:18:33;28.13;;;25.42;;
69172;SDS011;56280;49.662;8.408;2023-04-08T01:21:00;27.33;;;24.67;;
69172;SDS011;56280;49.662;8.408;2023-04-08T01:23:32;28.37;;;25.67;;
69172;SDS011;56280;49.662;8.408;2023-04-08T01:26:05;29.37;;;26.60;;
69172;SDS011;56280;49.662;8.408;2023-04-08T01:28:30;27.80;;;25.07;;
69172;SDS011;56280;49.662;8.408;2023-04-08T01:30:58;28.52;;;25.73;;
69172;SDS011;56280;49.662;8.408;2023-04-08T01:33:25;28.33;;;25.58;;
69172;SDS011;56280;49.662;8.408;2023-04-08T01:35:52;28.65;;;25.77;;
69172;SDS011;56280;49.662;8.408;2023-04-08T01:38:19;29.83;;;26.92;;
69172;SDS011;56280;49.662;8.408;2023-04-08T01:40:47;30.10;;;27.30;;
69172;SDS011;56280;49.662;8.408;2023-04-08T01:43:14;30.10;;;27.30;;
69172;SDS011;56280;49.662;8.408;2023-04-08T01:45:42;29.13;;;26.20;;
69172;SDS011;56280;49.662;8.408;2023-04-08T01:48:09;30.33;;;27.42;;
69172;SDS011;56280;49.662;8.408;2023-04-08T01:50:37;28.60;;;25.80;;
69172;SDS011;56280;49.662;8.408;2023-04-08T01:53:05;28.40;;;25.60;;
69172;SDS011;56280;49.662;8.408;2023-04-08T01:55:33;29.73;;;26.70;;
69172;SDS011;56280;49.662;8.408;2023-04-08T01:57:59;29.40;;;26.50;;
69172;SDS011;56280;49.662;8.408;2023-04-08T02:00:26;29.52;;;26.52;;
69172;SDS011;56280;49.662;8.408;2023-04-08T02:02:53;28.97;;;25.97;;
69172;SDS011;56280;49.662;8.408;2023-04-08T02:05:19;29.70;;;26.77;;
69172;SDS011;56280;49.662;8.408;2023-04-08T02:07:46;29.92;;;26.83;;
69172;SDS011;56280;49.662;8.408;2023-04-08T02:10:12;29.17;;;26.20;;
69172;SDS011;56280;49.662;8.408;2023-04-08T02:12:37;31.37;;;28.37;;
69172;SDS011;56280;49.662;8.408;2023-04-08T02:15:03;30.27;;;27.17;;
69172;SDS011;56280;49.662;8.408;2023-04-08T02:17:42;31.05;;;27.95;;
69172;SDS011;56280;49.662;8.408;2023-04-08T02:20:15;30.03;;;27.13;;
69172;SDS011;56280;49.662;8.408;2023-04-08T02:22:52;32.10;;;28.97;;
69172;SDS011;56280;49.662;8.408;2023-04-08T02:25:24;29.95;;;26.85;;
69172;SDS011;56280;49.662;8.408;2023-04-08T02:27:51;30.35;;;27.35;;
69172;SDS011;56280;49.662;8.408;2023-04-08T02:30:17;29.30;;;26.27;;
69172;SDS011;56280;49.662;8.408;2023-04-08T02:32:43;31.63;;;28.45;;
69172;SDS011;56280;49.662;8.408;2023-04-08T02:35:10;29.48;;;26.45;;
69172;SDS011;56280;49.662;8.408;2023-04-08T02:37:37;30.63;;;27.52;;
69172;SDS011;56280;49.662;8.408;2023-04-08T02:40:02;29.73;;;26.70;;
69172;SDS011;56280;49.662;8.408;2023-04-08T02:42:28;32.50;;;29.17;;
69172;SDS011;56280;49.662;8.408;2023-04-08T02:44:53;31.50;;;28.20;;
69172;SDS011;56280;49.662;8.408;2023-04-08T02:47:19;31.07;;;27.97;;
69172;SDS011;56280;49.662;8.408;2023-04-08T02:49:44;30.03;;;26.93;;
69172;SDS011;56280;49.662;8.408;2023-04-08T02:52:10;29.73;;;26.80;;
69172;SDS011;56280;49.662;8.408;2023-04-08T02:54:35;31.10;;;28.00;;
69172;SDS011;56280;49.662;8.408;2023-04-08T02:57:00;30.73;;;27.43;;
69172;SDS011;56280;49.662;8.408;2023-04-08T02:59:26;29.83;;;26.73;;
69172;SDS011;56280;49.662;8.408;2023-04-08T03:01:51;31.43;;;28.33;;
69172;SDS011;56280;49.662;8.408;2023-04-08T03:04:16;32.67;;;29.40;;
69172;SDS011;56280;49.662;8.408;2023-04-08T03:06:41;30.27;;;27.17;;
69172;SDS011;56280;49.662;8.408;2023-04-08T03:09:07;30.60;;;27.37;;
69172;SDS011;56280;49.662;8.408;2023-04-08T03:11:32;31.50;;;28.10;;
69172;SDS011;56280;49.662;8.408;2023-04-08T03:13:58;31.20;;;28.00;;
69172;SDS011;56280;49.662;8.408;2023-04-08T03:16:23;31.95;;;28.52;;
69172;SDS011;56280;49.662;8.408;2023-04-08T03:18:49;31.87;;;28.40;;
69172;SDS011;56280;49.662;8.408;2023-04-08T03:21:17;32.63;;;29.23;;
69172;SDS011;56280;49.662;8.408;2023-04-08T03:23:42;31.53;;;28.13;;
69172;SDS011;56280;49.662;8.408;2023-04-08T03:26:08;31.83;;;28.42;;
69172;SDS011;56280;49.662;8.408;2023-04-08T03:28:33;33.30;;;29.70;;
69172;SDS011;56280;49.662;8.408;2023-04-08T03:30:59;31.30;;;27.87;;
69172;SDS011;56280;49.662;8.408;2023-04-08T03:33:25;32.37;;;28.87;;
69172;SDS011;56280;49.662;8.408;2023-04-08T03:35:50;31.40;;;27.60;;
69172;SDS011;56280;49.662;8.408;2023-04-08T03:38:16;33.00;;;29.40;;
69172;SDS011;56280;49.662;8.408;2023-04-08T03:40:41;33.23;;;29.60;;
69172;SDS011;56280;49.662;8.408;2023-04-08T03:43:06;32.57;;;28.63;;
69172;SDS011;56280;49.662;8.408;2023-04-08T03:45:32;35.00;;;29.90;;
69172;SDS011;56280;49.662;8.408;2023-04-08T03:47:58;33.35;;;28.90;;
69172;SDS011;56280;49.662;8.408;2023-04-08T03:50:23;34.07;;;29.83;;
69172;SDS011;56280;49.662;8.408;2023-04-08T03:52:48;32.73;;;29.30;;
69172;SDS011;56280;49.662;8.408;2023-04-08T03:55:13;33.07;;;29.53;;
69172;SDS011;56280;49.662;8.408;2023-04-08T03:57:39;33.30;;;29.27;;
69172;SDS011;56280;49.662;8.408;2023-04-08T04:00:05;33.60;;;29.35;;
69172;SDS011;56280;49.662;8.408;2023-04-08T04:02:31;33.38;;;28.17;;
69172;SDS011;56280;49.662;8.408;2023-04-08T04:04:56;34.20;;;28.70;;
69172;SDS011;56280;49.662;8.408;2023-04-08T04:07:21;33.60;;;29.35;;
69172;SDS011;56280;49.662;8.408;2023-04-08T04:09:46;32.97;;;29.37;;
69172;SDS011;56280;49.662;8.408;2023-04-08T04:12:12;33.03;;;28.50;;
69172;SDS011;56280;49.662;8.408;2023-04-08T04:14:37;33.90;;;29.50;;
69172;SDS011;56280;49.662;8.408;2023-04-08T04:17:02;35.43;;;29.00;;
69172;SDS011;56280;49.662;8.408;2023-04-08T04:19:30;34.53;;;29.80;;
69172;SDS011;56280;49.662;8.408;2023-04-08T04:21:56;34.97;;;29.97;;
69172;SDS011;56280;49.662;8.408;2023-04-08T04:24:21;36.03;;;29.27;;
69172;SDS011;56280;49.662;8.408;2023-04-08T04:26:46;33.03;;;28.60;;
69172;SDS011;56280;49.662;8.408;2023-04-08T04:29:12;34.67;;;28.40;;
69172;SDS011;56280;49.662;8.408;2023-04-08T04:31:37;35.20;;;30.67;;
69172;SDS011;56280;49.662;8.408;2023-04-08T04:34:02;33.70;;;28.60;;
69172;SDS011;56280;49.662;8.408;2023-04-08T04:36:27;33.90;;;28.90;;
69172;SDS011;56280;49.662;8.408;2023-04-08T04:38:53;33.20;;;29.00;;
69172;SDS011;56280;49.662;8.408;2023-04-08T04:41:18;34.23;;;28.10;;
69172;SDS011;56280;49.662;8.408;2023-04-08T04:43:43;31.73;;;27.33;;
69172;SDS011;56280;49.662;8.408;2023-04-08T04:46:09;31.70;;;28.30;;
69172;SDS011;56280;49.662;8.408;2023-04-08T04:48:35;31.23;;;27.37;;
69172;SDS011;56280;49.662;8.408;2023-04-08T04:51:00;31.90;;;28.03;;
69172;SDS011;56280;49.662;8.408;2023-04-08T04:53:27;30.98;;;27.67;;
69172;SDS011;56280;49.662;8.408;2023-04-08T04:55:52;31.43;;;28.03;;
69172;SDS011;56280;49.662;8.408;2023-04-08T04:58:17;33.87;;;27.90;;
69172;SDS011;56280;49.662;8.408;2023-04-08T05:00:43;30.87;;;26.93;;
69172;SDS011;56280;49.662;8.408;2023-04-08T05:03:09;33.13;;;28.50;;
69172;SDS011;56280;49.662;8.408;2023-04-08T05:05:34;32.90;;;27.57;;
69172;SDS011;56280;49.662;8.408;2023-04-08T05:08:00;32.00;;;28.57;;
69172;SDS011;56280;49.662;8.408;2023-04-08T05:10:25;34.10;;;27.53;;
69172;SDS011;56280;49.662;8.408;2023-04-08T05:12:50;32.57;;;28.27;;
69172;SDS011;56280;49.662;8.408;2023-04-08T05:15:16;32.03;;;28.53;;
69172;SDS011;56280;49.662;8.408;2023-04-08T05:17:41;31.87;;;28.20;;
69172;SDS011;56280;49.662;8.408;2023-04-08T05:20:06;30.93;;;27.40;;
69172;SDS011;56280;49.662;8.408;2023-04-08T05:22:32;30.93;;;26.87;;
69172;SDS011;56280;49.662;8.408;2023-04-08T05:24:58;33.08;;;28.90;;
69172;SDS011;56280;49.662;8.408;2023-04-08T05:27:23;31.67;;;28.30;;
69172;SDS011;56280;49.662;8.408;2023-04-08T05:29:48;32.40;;;28.20;;
69172;SDS011;56280;49.662;8.408;2023-04-08T05:32:14;34.30;;;29.70;;
69172;SDS011;56280;49.662;8.408;2023-04-08T05:34:41;31.90;;;28.48;;
69172;SDS011;56280;49.662;8.408;2023-04-08T05:37:06;32.20;;;28.80;;
69172;SDS011;56280;49.662;8.408;2023-04-08T05:39:31;32.43;;;29.07;;
69172;SDS011;56280;49.662;8.408;2023-04-08T05:41:56;31.10;;;27.77;;
69172;SDS011;56280;49.662;8.408;2023-04-08T05:44:22;32.83;;;29.33;;
69172;SDS011;56280;49.662;8.408;2023-04-08T05:46:47;30.73;;;27.43;;
69172;SDS011;56280;49.662;8.408;2023-04-08T05:49:12;32.67;;;29.17;;
69172;SDS011;56280;49.662;8.408;2023-04-08T05:51:38;31.93;;;28.37;;
69172;SDS011;56280;49.662;8.408;2023-04-08T05:54:03;30.73;;;27.30;;
69172;SDS011;56280;49.662;8.408;2023-04-08T05:56:28;33.00;;;29.47;;
69172;SDS011;56280;49.662;8.408;2023-04-08T05:58:56;31.35;;;28.15;;
69172;SDS011;56280;49.662;8.408;2023-04-08T06:01:21;32.10;;;29.07;;
69172;SDS011;56280;49.662;8.408;2023-04-08T06:03:46;31.40;;;28.40;;
69172;SDS011;56280;49.662;8.408;2023-04-08T06:06:12;30.17;;;27.17;;
69172;SDS011;56280;49.662;8.408;2023-04-08T06:08:38;30.65;;;27.75;;
69172;SDS011;56280;49.662;8.408;2023-04-08T06:11:03;30.37;;;27.37;;
69172;SDS011;56280;49.662;8.408;2023-04-08T06:13:29;34.50;;;31.20;;
69172;SDS011;56280;49.662;8.408;2023-04-08T06:15:55;31.90;;;28.60;;
69172;SDS011;56280;49.662;8.408;2023-04-08T06:18:21;29.85;;;27.05;;
69172;SDS011;56280;49.662;8.408;2023-04-08T06:20:47;31.00;;;28.00;;
69172;SDS011;56280;49.662;8.408;2023-04-08T06:23:13;31.35;;;28.45;;
69172;SDS011;56280;49.662;8.408;2023-04-08T06:25:38;30.57;;;27.67;;
69172;SDS011;56280;49.662;8.408;2023-04-08T06:28:03;31.97;;;28.77;;
69172;SDS011;56280;49.662;8.408;2023-04-08T06:30:29;33.27;;;29.97;;
69172;SDS011;56280;49.662;8.408;2023-04-08T06:32:54;34.03;;;30.77;;
69172;SDS011;56280;49.662;8.408;2023-04-08T06:35:19;30.43;;;27.73;;
69172;SDS011;56280;49.662;8.408;2023-04-08T06:37:45;32.13;;;29.33;;
69172;SDS011;56280;49.662;8.408;2023-04-08T06:40:10;29.70;;;27.07;;
69172;SDS011;56280;49.662;8.408;2023-04-08T06:42:36;31.03;;;28.13;;
69172;SDS011;56280;49.662;8.408;2023-04-08T06:45:02;29.60;;;27.00;;
69172;SDS011;56280;49.662;8.408;2023-04-08T06:47:28;29.33;;;26.73;;
69172;SDS011;56280;49.662;8.408;2023-04-08T06:49:53;30.75;;;28.05;;
69172;SDS011;56280;49.662;8.408;2023-04-08T06:52:19;28.08;;;25.67;;
69172;SDS011;56280;49.662;8.408;2023-04-08T06:54:44;29.08;;;26.55;;
69172;SDS011;56280;49.662;8.408;2023-04-08T06:57:10;29.90;;;27.27;;
69172;SDS011;56280;49.662;8.408;2023-04-08T06:59:35;29.00;;;26.60;;
69172;SDS011;56280;49.662;8.408;2023-04-08T07:02:01;29.00;;;26.50;;
69172;SDS011;56280;49.662;8.408;2023-04-08T07:04:26;28.30;;;25.90;;
69172;SDS011;56280;49.662;8.408;2023-04-08T07:06:51;26.33;;;24.13;;
69172;SDS011;56280;49.662;8.408;2023-04-08T07:09:17;27.13;;;24.83;;
69172;SDS011;56280;49.662;8.408;2023-04-08T07:11:42;28.10;;;25.80;;
69172;SDS011;56280;49.662;8.408;2023-04-08T07:14:07;27.17;;;24.87;;
69172;SDS011;56280;49.662;8.408;2023-04-08T07:16:33;27.30;;;24.90;;
69172;SDS011;56280;49.662;8.408;2023-04-08T07:18:58;26.80;;;24.50;;
69172;SDS011;56280;49.662;8.408;2023-04-08T07:21:23;29.00;;;26.70;;
69172;SDS011;56280;49.662;8.408;2023-04-08T07:23:49;28.17;;;25.92;;
69172;SDS011;56280;49.662;8.408;2023-04-08T07:26:15;29.17;;;26.77;;
69172;SDS011;56280;49.662;8.408;2023-04-08T07:28:40;28.77;;;26.37;;
69172;SDS011;56280;49.662;8.408;2023-04-08T07:33:38;28.30;;;25.95;;
69172;SDS011;56280;49.662;8.408;2023-04-08T07:36:03;27.03;;;24.73;;
69172;SDS011;56280;49.662;8.408;2023-04-08T07:38:29;28.80;;;26.50;;
69172;SDS011;56280;49.662;8.408;2023-04-08T07:40:54;27.17;;;24.97;;
69172;SDS011;56280;49.662;8.408;2023-04-08T07:43:19;29.03;;;26.63;;
69172;SDS011;56280;49.662;8.408;2023-04-08T07:45:45;29.40;;;26.98;;
69172;SDS011;56280;49.662;8.408;2023-04-08T07:48:10;28.85;;;26.55;;
69172;SDS011;56280;49.662;8.408;2023-04-08T07:50:36;29.70;;;27.30;;
69172;SDS011;56280;49.662;8.408;2023-04-08T07:53:02;30.15;;;27.70;;
69172;SDS011;56280;49.662;8.408;2023-04-08T07:55:27;28.40;;;26.00;;
69172;SDS011;56280;49.662;8.408;2023-04-08T07:57:52;33.63;;;30.93;;
69172;SDS011;56280;49.662;8.408;2023-04-08T08:00:17;29.70;;;27.20;;
69172;SDS011;56280;49.662;8.408;2023-04-08T08:02:45;30.85;;;28.25;;
69172;SDS011;56280;49.662;8.408;2023-04-08T08:05:12;30.50;;;27.90;;
69172;SDS011;56280;49.662;8.408;2023-04-08T08:07:37;31.97;;;29.37;;
69172;SDS011;56280;49.662;8.408;2023-04-08T08:10:02;30.70;;;28.10;;
69172;SDS011;56280;49.662;8.408;2023-04-08T08:12:28;31.38;;;28.67;;
69172;SDS011;56280;49.662;8.408;2023-04-08T08:14:53;30.73;;;28.13;;
69172;SDS011;56280;49.662;8.408;2023-04-08T08:17:22;30.27;;;27.67;;
69172;SDS011;56280;49.662;8.408;2023-04-08T08:19:48;31.80;;;29.00;;
69172;SDS011;56280;49.662;8.408;2023-04-08T08:22:14;30.27;;;27.67;;
69172;SDS011;56280;49.662;8.408;2023-04-08T08:24:39;31.27;;;28.67;;
69172;SDS011;56280;49.662;8.408;2023-04-08T08:27:04;30.47;;;27.77;;
69172;SDS011;56280;49.662;8.408;2023-04-08T08:29:30;32.27;;;29.37;;
69172;SDS011;56280;49.662;8.408;2023-04-08T08:31:55;31.03;;;28.20;;
69172;SDS011;56280;49.662;8.408;2023-04-08T08:34:21;32.45;;;29.75;;
69172;SDS011;56280;49.662;8.408;2023-04-08T08:36:47;32.27;;;29.47;;
69172;SDS011;56280;49.662;8.408;2023-04-08T08:39:12;31.40;;;28.60;;
69172;SDS011;56280;49.662;8.408;2023-04-08T08:41:37;33.50;;;30.50;;
69172;SDS011;56280;49.662;8.408;2023-04-08T08:44:06;31.60;;;28.80;;
69172;SDS011;56280;49.662;8.408;2023-04-08T08:46:33;30.02;;;27.25;;
69172;SDS011;56280;49.662;8.408;2023-04-08T08:48:59;29.05;;;26.55;;
69172;SDS011;56280;49.662;8.408;2023-04-08T08:51:25;30.38;;;27.77;;
69172;SDS011;56280;49.662;8.408;2023-04-08T08:53:51;30.05;;;27.30;;
69172;SDS011;56280;49.662;8.408;2023-04-08T08:56:17;29.10;;;26.70;;
69172;SDS011;56280;49.662;8.408;2023-04-08T08:58:42;30.27;;;27.77;;
69172;SDS011;56280;49.662;8.408;2023-04-08T09:04:07;29.90;;;27.30;;
69172;SDS011;56280;49.662;8.408;2023-04-08T09:06:47;29.80;;;27.35;;
69172;SDS011;56280;49.662;8.408;2023-04-08T09:09:15;28.27;;;25.77;;
69172;SDS011;56280;49.662;8.408;2023-04-08T09:11:44;29.60;;;27.00;;
69172;SDS011;56280;49.662;8.408;2023-04-08T09:14:20;32.22;;;29.52;;
69172;SDS011;56280;49.662;8.408;2023-04-08T09:16:46;29.90;;;27.40;;
69172;SDS011;56280;49.662;8.408;2023-04-08T09:19:11;29.33;;;26.93;;
69172;SDS011;56280;49.662;8.408;2023-04-08T09:21:37;30.60;;;28.00;;
69172;SDS011;56280;49.662;8.408;2023-04-08T09:24:05;28.60;;;26.00;;
69172;SDS011;56280;49.662;8.408;2023-04-08T09:26:30;28.23;;;25.83;;
69172;SDS011;56280;49.662;8.408;2023-04-08T09:29:05;29.70;;;27.10;;
69172;SDS011;56280;49.662;8.408;2023-04-08T09:31:33;28.90;;;26.42;;
69172;SDS011;56280;49.662;8.408;2023-04-08T09:34:08;29.03;;;26.50;;
69172;SDS011;56280;49.662;8.408;2023-04-08T09:36:39;30.60;;;27.90;;
69172;SDS011;56280;49.662;8.408;2023-04-08T09:39:04;30.60;;;27.97;;
69172;SDS011;56280;49.662;8.408;2023-04-08T09:41:32;30.13;;;27.48;;
69172;SDS011;56280;49.662;8.408;2023-04-08T09:43:59;29.10;;;26.60;;
69172;SDS011;56280;49.662;8.408;2023-04-08T09:46:32;28.52;;;26.13;;
69172;SDS011;56280;49.662;8.408;2023-04-08T09:49:10;30.27;;;27.65;;
69172;SDS011;56280;49.662;8.408;2023-04-08T09:54:18;29.35;;;26.85;;
69172;SDS011;56280;49.662;8.408;2023-04-08T09:56:48;28.13;;;25.73;;
69172;SDS011;56280;49.662;8.408;2023-04-08T09:59:18;28.25;;;25.77;;
69172;SDS011;56280;49.662;8.408;2023-04-08T10:01:51;27.80;;;25.30;;
69172;SDS011;56280;49.662;8.408;2023-04-08T10:04:19;24.98;;;22.67;;
69172;SDS011;56280;49.662;8.408;2023-04-08T10:06:47;27.67;;;25.23;;
69172;SDS011;56280;49.662;8.408;2023-04-08T10:09:19;28.10;;;25.60;;
69172;SDS011;56280;49.662;8.408;2023-04-08T10:11:46;23.83;;;21.63;;
69172;SDS011;56280;49.662;8.408;2023-04-08T10:14:12;23.50;;;21.30;;
69172;SDS011;56280;49.662;8.408;2023-04-08T10:16:37;22.40;;;20.20;;
69172;SDS011;56280;49.662;8.408;2023-04-08T10:19:03;24.67;;;22.37;;
69172;SDS011;56280;49.662;8.408;2023-04-08T10:22:02;26.30;;;23.93;;
69172;SDS011;56280;49.662;8.408;2023-04-08T10:24:27;30.33;;;27.93;;
69172;SDS011;56280;49.662;8.408;2023-04-08T10:26:53;30.37;;;27.87;;
69172;SDS011;56280;49.662;8.408;2023-04-08T10:31:43;30.40;;;27.70;;
69172;SDS011;56280;49.662;8.408;2023-04-08T10:36:46;31.10;;;28.60;;
69172;SDS011;56280;49.662;8.408;2023-04-08T10:39:13;28.93;;;26.50;;
69172;SDS011;56280;49.662;8.408;2023-04-08T10:41:43;30.85;;;28.27;;
69172;SDS011;56280;49.662;8.408;2023-04-08T10:44:15;30.10;;;27.50;;
69172;SDS011;56280;49.662;8.408;2023-04-08T10:46:49;27.05;;;24.65;;
69172;SDS011;56280;49.662;8.408;2023-04-08T10:49:16;22.88;;;20.67;;
69172;SDS011;56280;49.662;8.408;2023-04-08T10:51:42;23.70;;;21.50;;
69172;SDS011;56280;49.662;8.408;2023-04-08T10:54:11;23.70;;;21.55;;
69172;SDS011;56280;49.662;8.408;2023-04-08T10:56:48;20.85;;;18.70;;
69172;SDS011;56280;49.662;8.408;2023-04-08T10:59:15;19.63;;;17.63;;
69172;SDS011;56280;49.662;8.408;2023-04-08T11:01:42;17.00;;;15.05;;
69172;SDS011;56280;49.662;8.408;2023-04-08T11:04:11;16.42;;;12.60;;
69172;SDS011;56280;49.662;8.408;2023-04-08T11:06:37;15.02;;;12.90;;
69172;SDS011;56280;49.662;8.408;2023-04-08T11:09:02;16.40;;;13.30;;
69172;SDS011;56280;49.662;8.408;2023-04-08T11:11:29;17.03;;;14.87;;
69172;SDS011;56280;49.662;8.408;2023-04-08T11:13:55;16.85;;;14.55;;
69172;SDS011;56280;49.662;8.408;2023-04-08T11:16:21;20.20;;;18.17;;
69172;SDS011;56280;49.662;8.408;2023-04-08T11:18:46;19.20;;;17.20;;
69172;SDS011;56280;49.662;8.408;2023-04-08T11:21:13;17.73;;;15.05;;
69172;SDS011;56280;49.662;8.408;2023-04-08T11:23:40;17.50;;;15.37;;
69172;SDS011;56280;49.662;8.408;2023-04-08T11:26:06;15.48;;;12.38;;
69172;SDS011;56280;49.662;8.408;2023-04-08T11:28:32;16.57;;;13.30;;
69172;SDS011;56280;49.662;8.408;2023-04-08T11:30:59;16.97;;;15.27;;
69172;SDS011;56280;49.662;8.408;2023-04-08T11:33:26;20.00;;;18.10;;
69172;SDS011;56280;49.662;8.408;2023-04-08T11:35:55;17.83;;;16.03;;
69172;SDS011;56280;49.662;8.408;2023-04-08T11:38:21;15.40;;;13.43;;
69172;SDS011;56280;49.662;8.408;2023-04-08T11:40:56;16.92;;;15.23;;
69172;SDS011;56280;49.662;8.408;2023-04-08T11:43:23;15.75;;;14.15;;
69172;SDS011;56280;49.662;8.408;2023-04-08T11:45:50;16.20;;;14.50;;
69172;SDS011;56280;49.662;8.408;2023-04-08T11:48:16;15.67;;;14.07;;
69172;SDS011;56280;49.662;8.408;2023-04-08T11:50:42;17.42;;;12.93;;
69172;SDS011;56280;49.662;8.408;2023-04-08T11:53:15;16.80;;;15.00;;
69172;SDS011;56280;49.662;8.408;2023-04-08T11:55:44;16.02;;;13.38;;
69172;SDS011;56280;49.662;8.408;2023-04-08T11:58:09;16.07;;;14.37;;
69172;SDS011;56280;49.662;8.408;2023-04-08T12:00:35;17.52;;;15.73;;
69172;SDS011;56280;49.662;8.408;2023-04-08T12:03:01;16.23;;;14.43;;
69172;SDS011;56280;49.662;8.408;2023-04-08T12:05:26;16.40;;;13.63;;
69172;SDS011;56280;49.662;8.408;2023-04-08T12:07:51;16.17;;;14.47;;
69172;SDS011;56280;49.662;8.408;2023-04-08T12:10:17;15.20;;;13.10;;
69172;SDS011;56280;49.662;8.408;2023-04-08T12:12:42;16.17;;;12.73;;
69172;SDS011;56280;49.662;8.408;2023-04-08T12:15:07;14.87;;;11.60;;
69172;SDS011;56280;49.662;8.408;2023-04-08T12:17:33;14.93;;;11.18;;
69172;SDS011;56280;49.662;8.408;2023-04-08T12:20:00;16.25;;;11.82;;
69172;SDS011;56280;49.662;8.408;2023-04-08T12:22:25;14.43;;;12.17;;
69172;SDS011;56280;49.662;8.408;2023-04-08T12:24:51;16.27;;;12.50;;
69172;SDS011;56280;49.662;8.408;2023-04-08T12:27:16;13.83;;;11.53;;
69172;SDS011;56280;49.662;8.408;2023-04-08T12:29:41;15.20;;;11.23;;
69172;SDS011;56280;49.662;8.408;2023-04-08T12:32:07;15.27;;;11.30;;
69172;SDS011;56280;49.662;8.408;2023-04-08T12:34:32;14.45;;;11.43;;
69172;SDS011;56280;49.662;8.408;2023-04-08T12:36:58;14.35;;;11.65;;
69172;SDS011;56280;49.662;8.408;2023-04-08T12:39:23;13.73;;;11.38;;
69172;SDS011;56280;49.662;8.408;2023-04-08T12:41:49;15.93;;;11.88;;
69172;SDS011;56280;49.662;8.408;2023-04-08T12:44:14;15.33;;;11.30;;
69172;SDS011;56280;49.662;8.408;2023-04-08T12:46:39;15.43;;;11.70;;
69172;SDS011;56280;49.662;8.408;2023-04-08T12:49:05;15.60;;;10.93;;
69172;SDS011;56280;49.662;8.408;2023-04-08T12:51:31;13.97;;;10.40;;
69172;SDS011;56280;49.662;8.408;2023-04-08T12:53:56;14.23;;;10.80;;
69172;SDS011;56280;49.662;8.408;2023-04-08T12:56:21;14.43;;;10.55;;
69172;SDS011;56280;49.662;8.408;2023-04-08T12:58:47;13.63;;;10.43;;
69172;SDS011;56280;49.662;8.408;2023-04-08T13:01:13;14.30;;;11.37;;
69172;SDS011;56280;49.662;8.408;2023-04-08T13:03:38;15.37;;;11.30;;
69172;SDS011;56280;49.662;8.408;2023-04-08T13:06:05;13.60;;;10.68;;
69172;SDS011;56280;49.662;8.408;2023-04-08T13:08:30;13.63;;;10.67;;
69172;SDS011;56280;49.662;8.408;2023-04-08T13:10:55;14.33;;;10.67;;
69172;SDS011;56280;49.662;8.408;2023-04-08T13:13:20;14.10;;;10.50;;
69172;SDS011;56280;49.662;8.408;2023-04-08T13:15:46;14.13;;;10.33;;
69172;SDS011;56280;49.662;8.408;2023-04-08T13:18:11;12.83;;;9.77;;
69172;SDS011;56280;49.662;8.408;2023-04-08T13:20:37;12.93;;;10.13;;
69172;SDS011;56280;49.662;8.408;2023-04-08T13:23:03;12.70;;;10.03;;
69172;SDS011;56280;49.662;8.408;2023-04-08T13:25:28;14.63;;;10.40;;
69172;SDS011;56280;49.662;8.408;2023-04-08T13:27:53;13.70;;;10.73;;
69172;SDS011;56280;49.662;8.408;2023-04-08T13:30:19;16.43;;;12.00;;
69172;SDS011;56280;49.662;8.408;2023-04-08T13:32:44;14.10;;;10.53;;
69172;SDS011;56280;49.662;8.408;2023-04-08T13:35:10;12.50;;;10.37;;
69172;SDS011;56280;49.662;8.408;2023-04-08T13:37:35;13.60;;;10.60;;
69172;SDS011;56280;49.662;8.408;2023-04-08T13:40:00;13.07;;;10.07;;
69172;SDS011;56280;49.662;8.408;2023-04-08T13:42:26;13.87;;;10.30;;
69172;SDS011;56280;49.662;8.408;2023-04-08T13:44:51;13.60;;;10.30;;
69172;SDS011;56280;49.662;8.408;2023-04-08T13:47:16;14.60;;;10.07;;
69172;SDS011;56280;49.662;8.408;2023-04-08T13:49:42;13.37;;;10.10;;
69172;SDS011;56280;49.662;8.408;2023-04-08T13:52:07;12.57;;;9.77;;
69172;SDS011;56280;49.662;8.408;2023-04-08T13:54:33;13.55;;;9.88;;
69172;SDS011;56280;49.662;8.408;2023-04-08T13:56:58;12.95;;;9.68;;
69172;SDS011;56280;49.662;8.408;2023-04-08T13:59:25;13.45;;;9.63;;
69172;SDS011;56280;49.662;8.408;2023-04-08T14:01:50;13.23;;;9.30;;
69172;SDS011;56280;49.662;8.408;2023-04-08T14:04:18;12.82;;;9.32;;
69172;SDS011;56280;49.662;8.408;2023-04-08T14:06:44;12.90;;;9.30;;
69172;SDS011;56280;49.662;8.408;2023-04-08T14:09:10;12.20;;;8.23;;
69172;SDS011;56280;49.662;8.408;2023-04-08T14:11:35;12.03;;;8.40;;
69172;SDS011;56280;49.662;8.408;2023-04-08T14:14:00;12.03;;;7.90;;
69172;SDS011;56280;49.662;8.408;2023-04-08T14:16:25;11.67;;;7.93;;
69172;SDS011;56280;49.662;8.408;2023-04-08T14:18:51;11.50;;;7.85;;
69172;SDS011;56280;49.662;8.408;2023-04-08T14:21:17;11.90;;;7.87;;
69172;SDS011;56280;49.662;8.408;2023-04-08T14:23:42;11.80;;;7.37;;
69172;SDS011;56280;49.662;8.408;2023-04-08T14:26:08;10.57;;;6.90;;
69172;SDS011;56280;49.662;8.408;2023-04-08T14:28:33;10.40;;;7.07;;
69172;SDS011;56280;49.662;8.408;2023-04-08T14:30:58;10.00;;;6.80;;
69172;SDS011;56280;49.662;8.408;2023-04-08T14:33:23;11.50;;;7.50;;